Stockdale, Texas
Current Conditions -  °F | °C
As of 1:13 AM on Sunday 23 Nov 2014 (Local Time) from KRND Reporting Station
Scattered Clouds Scattered Clouds  
Wind Chill: 61°   Ceiling: Unl
Heat Index: 61°   Visibility: 10mi
Dew Point: 57°   Wind: 1mph
Humidity: 88%   Direction: 20°NNE
Pressure: 29.71"   Gusts: NA
Location:  29.24°N, 97.96°W
Report Text: KRND 230713Z AUTO 02001KT 10SM SCT010 16/14 A2971 RMK AO2
Loading
Personal Weather Stations






























Interactive Weather Map New forecast layout! Learn more

10-Day Weather Forecast

Advertisements
Track Severe Weather on mobile